aviador You're here:

KONX Decoded Metar

CURRITUCK in NC, USA
Report Time2017-11-20 05:20:00
UTC Time2017-11-20 05:33:04
Flight Rules vfr VFR
Wind280° at 04 kt
W.Decomp.*RWY 23: 2.0 kt HW 3.5 kt RCW
W.Rank280° ranks 19
Current wind is below 280° avg. (6.0)
Visibility9999 m
Phenomena:N/A
Clouds:N/A
Expected CloudBase > 2,400 ft AGL from Temp-Dew spread
CeilingNone
Temp06°C (ISA -9)
Dew Point00°C (66% RH)
AAT2.6°C
QNH1017 hPa
Density Alt-1,119 ft
Elevation16 ft
Report Wrong Elevation
Raw Report
METAR KONX 200520Z AUTO 28004KT 10SM CLR 06/00 A3004 RMK AO2 T00581005=

Extra information for KONX:More info

Metar Taf Metar & Taf Last 4 Metars F.Rules Stats Wind Profile Meteogram Temp Stats Airport Information Weather charts Add Link Nearby VenuesMetar ALERT Operation Metar Decoded Social comments

AIRNAV info for KONX